sensor_id;sensor_type;location;lat;lon;timestamp;pressure;altitude;pressure_sealevel;temperature;humidity
45789;BME280;31492;54.856;26.318;2023-02-23T05:56:11;1022.6;;;-6;57.4
45789;BME280;31492;54.856;26.318;2023-02-23T06:01:22;1023.5;;;-5.9;60.2
45789;BME280;31492;54.856;26.318;2023-02-23T06:06:11;1023.6;;;-5.8;59.7
45789;BME280;31492;54.856;26.318;2023-02-23T06:11:10;1023.6;;;-5.8;59.4
45789;BME280;31492;54.856;26.318;2023-02-23T06:16:10;1023.6;;;-5.6;59.4
45789;BME280;31492;54.856;26.318;2023-02-23T06:21:10;1023.7;;;-5.5;59.1
45789;BME280;31492;54.856;26.318;2023-02-23T06:26:36;1023.7;;;-5.5;58.8
45789;BME280;31492;54.856;26.318;2023-02-23T06:31:24;1023.7;;;-5.5;58.8
45789;BME280;31492;54.856;26.318;2023-02-23T06:36:18;1023.7;;;-5.4;58.4
45789;BME280;31492;54.856;26.318;2023-02-23T06:41:22;1023.7;;;-5.3;58.3
45789;BME280;31492;54.856;26.318;2023-02-23T06:46:24;1023.7;;;-5.2;58.2
45789;BME280;31492;54.856;26.318;2023-02-23T06:51:10;1023.8;;;-5.1;58
45789;BME280;31492;54.856;26.318;2023-02-23T06:56:48;1023.8;;;-4.9;57.9
45789;BME280;31492;54.856;26.318;2023-02-23T07:01:10;1023.8;;;-4.8;57.7
45789;BME280;31492;54.856;26.318;2023-02-23T07:06:24;1023.8;;;-4.8;57.7
45789;BME280;31492;54.856;26.318;2023-02-23T07:11:11;1023.8;;;-4.7;57.8
45789;BME280;31492;54.856;26.318;2023-02-23T07:16:11;1023.8;;;-4.7;57.3
45789;BME280;31492;54.856;26.318;2023-02-23T07:21:24;1023.8;;;-4.7;56.9
45789;BME280;31492;54.856;26.318;2023-02-23T07:26:10;1023.7;;;-4.6;56.9
45789;BME280;31492;54.856;26.318;2023-02-23T07:31:22;1023.7;;;-4.6;56.5
45789;BME280;31492;54.856;26.318;2023-02-23T07:36:24;1023.6;;;-4.4;56.4
45789;BME280;31492;54.856;26.318;2023-02-23T07:41:10;1023.6;;;-4.3;56.2
45789;BME280;31492;54.856;26.318;2023-02-23T07:46:10;1023.6;;;-4.2;56.1
45789;BME280;31492;54.856;26.318;2023-02-23T07:51:11;1023.5;;;-4.1;55.8
45789;BME280;31492;54.856;26.318;2023-02-23T07:56:24;1023.5;;;-4;55.3
45789;BME280;31492;54.856;26.318;2023-02-23T08:01:11;1023.5;;;-4;55
45789;BME280;31492;54.856;26.318;2023-02-23T08:06:10;1023.5;;;-4;55.2
45789;BME280;31492;54.856;26.318;2023-02-23T08:11:10;1023.6;;;-3.9;55
45789;BME280;31492;54.856;26.318;2023-02-23T08:16:18;1023.5;;;-3.8;54.8
45789;BME280;31492;54.856;26.318;2023-02-23T08:21:25;1023.5;;;-3.7;54.5
45789;BME280;31492;54.856;26.318;2023-02-23T08:26:23;1023.5;;;-3.6;54.5
45789;BME280;31492;54.856;26.318;2023-02-23T08:31:11;1023.5;;;-3.6;54.6
45789;BME280;31492;54.856;26.318;2023-02-23T08:36:24;1023.5;;;-3.5;54.6
45789;BME280;31492;54.856;26.318;2023-02-23T08:41:19;1023.5;;;-3.4;54.5
45789;BME280;31492;54.856;26.318;2023-02-23T08:47:04;1023.4;;;-3.2;54.3
45789;BME280;31492;54.856;26.318;2023-02-23T08:51:32;1023.4;;;-3.1;54.3
45789;BME280;31492;54.856;26.318;2023-02-23T08:56:22;1023.3;;;-3;53.6
45789;BME280;31492;54.856;26.318;2023-02-23T09:01:14;1023.2;;;-2.8;53.5
45789;BME280;31492;54.856;26.318;2023-02-23T09:06:11;1023.1;;;-2.6;53.1
45789;BME280;31492;54.856;26.318;2023-02-23T09:11:10;1023.2;;;-2.6;52.8
45789;BME280;31492;54.856;26.318;2023-02-23T09:16:10;1023.2;;;-2.5;52.8
45789;BME280;31492;54.856;26.318;2023-02-23T09:21:13;1023.1;;;-2.4;52.6
45789;BME280;31492;54.856;26.318;2023-02-23T09:26:10;1023;;;-2.5;52.9
45789;BME280;31492;54.856;26.318;2023-02-23T09:31:31;1022.9;;;-2.3;52.9
45789;BME280;31492;54.856;26.318;2023-02-23T09:36:25;1022.9;;;-2.2;53
45789;BME280;31492;54.856;26.318;2023-02-23T09:41:21;1023;;;-2;52.9
45789;BME280;31492;54.856;26.318;2023-02-23T09:46:12;1022.9;;;-1.8;52.5
45789;BME280;31492;54.856;26.318;2023-02-23T09:51:11;1022.9;;;-1.8;52.2
45789;BME280;31492;54.856;26.318;2023-02-23T09:56:11;1022.8;;;-1.8;52.3
45789;BME280;31492;54.856;26.318;2023-02-23T10:01:31;1022.8;;;-1.6;52.4
45789;BME280;31492;54.856;26.318;2023-02-23T10:06:32;1022.6;;;-1.5;52.1
45789;BME280;31492;54.856;26.318;2023-02-23T10:11:13;1022.5;;;-1.4;51.8
45789;BME280;31492;54.856;26.318;2023-02-23T10:16:27;1022.5;;;-1.3;51.4
45789;BME280;31492;54.856;26.318;2023-02-23T10:21:20;1022.5;;;-1.1;51.2
45789;BME280;31492;54.856;26.318;2023-02-23T10:26:25;1022.5;;;-1.1;50.7
45789;BME280;31492;54.856;26.318;2023-02-23T10:31:17;1022.4;;;-1.1;50.5
45789;BME280;31492;54.856;26.318;2023-02-23T10:36:11;1022.3;;;-1;50.3
45789;BME280;31492;54.856;26.318;2023-02-23T10:41:10;1022.1;;;-0.8;50.1
45789;BME280;31492;54.856;26.318;2023-02-23T10:46:20;1022.1;;;-0.5;49.6
45789;BME280;31492;54.856;26.318;2023-02-23T10:51:12;1022.1;;;-0.2;49.1
45789;BME280;31492;54.856;26.318;2023-02-23T10:56:11;1022.1;;;0.1;48.8
45789;BME280;31492;54.856;26.318;2023-02-23T11:01:31;1022;;;0.4;48.3
45789;BME280;31492;54.856;26.318;2023-02-23T11:06:26;1022.1;;;0.7;47.5
45789;BME280;31492;54.856;26.318;2023-02-23T11:11:21;1021.9;;;1.1;47.3
45789;BME280;31492;54.856;26.318;2023-02-23T11:16:11;1021.8;;;1.4;46.7
45789;BME280;31492;54.856;26.318;2023-02-23T11:21:11;1021.8;;;1.7;46.6
45789;BME280;31492;54.856;26.318;2023-02-23T11:26:27;1021.7;;;1.8;45.9
45789;BME280;31492;54.856;26.318;2023-02-23T11:31:27;1021.6;;;2;45.2
45789;BME280;31492;54.856;26.318;2023-02-23T11:36:24;1021.7;;;2;44.7
45789;BME280;31492;54.856;26.318;2023-02-23T11:41:24;1021.6;;;1.9;44.4
45789;BME280;31492;54.856;26.318;2023-02-23T11:46:25;1021.5;;;2;43.4
45789;BME280;31492;54.856;26.318;2023-02-23T11:51:23;1021.6;;;2.1;43.8
45789;BME280;31492;54.856;26.318;2023-02-23T11:56:19;1021.4;;;2.2;43.8
45789;BME280;31492;54.856;26.318;2023-02-23T12:01:19;1021.3;;;2.3;43.5
45789;BME280;31492;54.856;26.318;2023-02-23T12:06:10;1021.3;;;2.2;43.2
45789;BME280;31492;54.856;26.318;2023-02-23T12:11:11;1021.2;;;2.2;43.5
45789;BME280;31492;54.856;26.318;2023-02-23T12:16:23;1021.1;;;2.2;43.8
45789;BME280;31492;54.856;26.318;2023-02-23T12:21:14;1021;;;2.2;43
45789;BME280;31492;54.856;26.318;2023-02-23T12:26:11;1020.8;;;2.2;43.6
45789;BME280;31492;54.856;26.318;2023-02-23T12:31:25;1020.9;;;2.2;43.4
45789;BME280;31492;54.856;26.318;2023-02-23T12:36:12;1020.7;;;2.1;43.1
45789;BME280;31492;54.856;26.318;2023-02-23T12:41:25;1020.7;;;2.1;42.5
45789;BME280;31492;54.856;26.318;2023-02-23T12:46:11;1020.7;;;2.1;41.4
45789;BME280;31492;54.856;26.318;2023-02-23T12:51:21;1020.6;;;1.9;42.1
45789;BME280;31492;54.856;26.318;2023-02-23T12:56:13;1020.5;;;1.7;41.8
45789;BME280;31492;54.856;26.318;2023-02-23T13:01:11;1020.5;;;1.7;41.8
45789;BME280;31492;54.856;26.318;2023-02-23T13:06:26;1020.3;;;1.7;41.5
45789;BME280;31492;54.856;26.318;2023-02-23T13:11:12;1020.3;;;1.7;41.2
45789;BME280;31492;54.856;26.318;2023-02-23T13:16:12;1020.2;;;1.7;41.4
45789;BME280;31492;54.856;26.318;2023-02-23T13:21:25;1020.2;;;1.7;41.1
45789;BME280;31492;54.856;26.318;2023-02-23T13:26:27;1020.1;;;1.7;40.4
45789;BME280;31492;54.856;26.318;2023-02-23T13:31:23;1020;;;1.8;39.9
45789;BME280;31492;54.856;26.318;2023-02-23T13:36:25;1020;;;1.8;39.9
45789;BME280;31492;54.856;26.318;2023-02-23T13:41:49;1019.9;;;1.6;40.7
45789;BME280;31492;54.856;26.318;2023-02-23T13:46:13;1019.7;;;1.6;40.8
45789;BME280;31492;54.856;26.318;2023-02-23T13:51:12;1019.7;;;1.5;40.8
45789;BME280;31492;54.856;26.318;2023-02-23T13:56:23;1019.7;;;1.5;40.9
45789;BME280;31492;54.856;26.318;2023-02-23T14:01:25;1019.6;;;1.5;41.1
45789;BME280;31492;54.856;26.318;2023-02-23T14:06:19;1019.6;;;1.5;41.4
45789;BME280;31492;54.856;26.318;2023-02-23T14:11:25;1019.5;;;1.5;41.3
45789;BME280;31492;54.856;26.318;2023-02-23T14:16:32;1019.3;;;1.5;41.6
45789;BME280;31492;54.856;26.318;2023-02-23T14:21:25;1019.2;;;1.4;42.2
45789;BME280;31492;54.856;26.318;2023-02-23T14:26:12;1019.1;;;1.1;42.6
45789;BME280;31492;54.856;26.318;2023-02-23T14:31:51;1019.1;;;0.9;42.6
45789;BME280;31492;54.856;26.318;2023-02-23T14:36:31;1019;;;0.7;42.9
45789;BME280;31492;54.856;26.318;2023-02-23T14:41:10;1019;;;0.6;43.5
45789;BME280;31492;54.856;26.318;2023-02-23T14:46:12;1018.9;;;0.6;43.8
45789;BME280;31492;54.856;26.318;2023-02-23T14:51:27;1018.8;;;0.5;44.2
45789;BME280;31492;54.856;26.318;2023-02-23T14:56:19;1018.6;;;0.4;44.5
45789;BME280;31492;54.856;26.318;2023-02-23T15:01:32;1018.5;;;0.2;45
45789;BME280;31492;54.856;26.318;2023-02-23T15:06:45;1018.4;;;0.1;45.7
45789;BME280;31492;54.856;26.318;2023-02-23T15:11:24;1018.4;;;0;45.9
45789;BME280;31492;54.856;26.318;2023-02-23T15:16:13;1018.3;;;0;46.3
45789;BME280;31492;54.856;26.318;2023-02-23T15:21:11;1018.3;;;-0.1;46.8
45789;BME280;31492;54.856;26.318;2023-02-23T15:26:14;1018.2;;;-0.3;47.2
45789;BME280;31492;54.856;26.318;2023-02-23T15:31:10;1018.2;;;-0.4;47.8
45789;BME280;31492;54.856;26.318;2023-02-23T15:36:24;1018.1;;;-0.4;47.9
45789;BME280;31492;54.856;26.318;2023-02-23T15:41:12;1018;;;-0.5;47.9
45789;BME280;31492;54.856;26.318;2023-02-23T15:46:20;1017.9;;;-0.7;48
45789;BME280;31492;54.856;26.318;2023-02-23T15:51:28;1017.9;;;-0.7;48.2
45789;BME280;31492;54.856;26.318;2023-02-23T15:56:24;1017.8;;;-0.8;48.4
45789;BME280;31492;54.856;26.318;2023-02-23T16:01:11;1017.8;;;-0.7;48.3
45789;BME280;31492;54.856;26.318;2023-02-23T16:06:20;1017.8;;;-0.7;48.1
45789;BME280;31492;54.856;26.318;2023-02-23T16:11:18;1017.8;;;-0.8;48.6
45789;BME280;31492;54.856;26.318;2023-02-23T16:16:24;1017.7;;;-0.8;48.7
45789;BME280;31492;54.856;26.318;2023-02-23T16:21:32;1017.6;;;-0.9;49
45789;BME280;31492;54.856;26.318;2023-02-23T16:26:14;1017.6;;;-0.8;49.1
45789;BME280;31492;54.856;26.318;2023-02-23T16:31:41;1017.5;;;-0.9;49.2
45789;BME280;31492;54.856;26.318;2023-02-23T16:36:19;1017.4;;;-1;49.4
45789;BME280;31492;54.856;26.318;2023-02-23T16:41:25;1017.4;;;-0.9;49.6
45789;BME280;31492;54.856;26.318;2023-02-23T16:46:10;1017.3;;;-0.9;49.7
45789;BME280;31492;54.856;26.318;2023-02-23T16:51:25;1017.2;;;-0.9;49.7
45789;BME280;31492;54.856;26.318;2023-02-23T16:56:33;1017.1;;;-0.9;49.7
45789;BME280;31492;54.856;26.318;2023-02-23T17:01:11;1017.1;;;-0.8;49.6
45789;BME280;31492;54.856;26.318;2023-02-23T17:06:11;1017;;;-0.8;49.5
45789;BME280;31492;54.856;26.318;2023-02-23T17:11:24;1016.9;;;-0.8;49.6
45789;BME280;31492;54.856;26.318;2023-02-23T17:16:36;1016.8;;;-0.7;49.5
45789;BME280;31492;54.856;26.318;2023-02-23T17:21:46;1016.7;;;-0.6;49.2
45789;BME280;31492;54.856;26.318;2023-02-23T17:26:17;1016.6;;;-0.6;49.6
45789;BME280;31492;54.856;26.318;2023-02-23T17:31:10;1016.4;;;-0.6;49.4
45789;BME280;31492;54.856;26.318;2023-02-23T17:36:11;1016.3;;;-0.5;49.4
45789;BME280;31492;54.856;26.318;2023-02-23T17:41:53;1016.1;;;-0.5;49.6
45789;BME280;31492;54.856;26.318;2023-02-23T17:46:32;1016;;;-0.4;49.5
45789;BME280;31492;54.856;26.318;2023-02-23T17:51:18;1016;;;-0.5;49.6
45789;BME280;31492;54.856;26.318;2023-02-23T17:56:24;1016;;;-0.5;49.7
45789;BME280;31492;54.856;26.318;2023-02-23T18:01:20;1015.9;;;-0.5;49.9
45789;BME280;31492;54.856;26.318;2023-02-23T18:06:11;1015.8;;;-0.6;50.2
45789;BME280;31492;54.856;26.318;2023-02-23T18:11:11;1015.7;;;-0.6;50.4
45789;BME280;31492;54.856;26.318;2023-02-23T18:16:28;1015.7;;;-0.6;50.4
45789;BME280;31492;54.856;26.318;2023-02-23T18:21:11;1015.6;;;-0.7;50.7
45789;BME280;31492;54.856;26.318;2023-02-23T18:26:44;1015.6;;;-0.7;50.7
45789;BME280;31492;54.856;26.318;2023-02-23T18:31:11;1015.6;;;-0.7;50.9
45789;BME280;31492;54.856;26.318;2023-02-23T18:36:26;1015.5;;;-0.8;50.9
45789;BME280;31492;54.856;26.318;2023-02-23T18:41:18;1015.5;;;-0.8;51.1
45789;BME280;31492;54.856;26.318;2023-02-23T18:46:11;1015.5;;;-0.8;51.2
45789;BME280;31492;54.856;26.318;2023-02-23T18:51:11;1015.4;;;-0.7;50.9
45789;BME280;31492;54.856;26.318;2023-02-23T18:56:35;1015.4;;;-0.7;51
45789;BME280;31492;54.856;26.318;2023-02-23T19:01:11;1015.3;;;-0.6;50.8
45789;BME280;31492;54.856;26.318;2023-02-23T19:06:12;1015.2;;;-0.5;50.7
45789;BME280;31492;54.856;26.318;2023-02-23T19:11:39;1015.1;;;-0.5;51
45789;BME280;31492;54.856;26.318;2023-02-23T19:16:31;1015.1;;;-0.5;51
45789;BME280;31492;54.856;26.318;2023-02-23T19:21:36;1015;;;-0.5;51.1
45789;BME280;31492;54.856;26.318;2023-02-23T19:26:31;1014.9;;;-0.4;51.1
45789;BME280;31492;54.856;26.318;2023-02-23T19:31:12;1014.9;;;-0.4;50.9
45789;BME280;31492;54.856;26.318;2023-02-23T19:36:11;1014.7;;;-0.3;50.8
45789;BME280;31492;54.856;26.318;2023-02-23T19:41:31;1014.5;;;-0.3;50.6
45789;BME280;31492;54.856;26.318;2023-02-23T19:46:11;1014.4;;;-0.3;50.5
45789;BME280;31492;54.856;26.318;2023-02-23T19:51:32;1014.3;;;-0.2;50
45789;BME280;31492;54.856;26.318;2023-02-23T19:56:11;1014.2;;;-0.3;50.6
45789;BME280;31492;54.856;26.318;2023-02-23T20:01:24;1014.2;;;-0.2;50.7
45789;BME280;31492;54.856;26.318;2023-02-23T20:06:11;1014.1;;;-0.2;50.7
45789;BME280;31492;54.856;26.318;2023-02-23T20:11:10;1014;;;-0.2;50.6
45789;BME280;31492;54.856;26.318;2023-02-23T20:16:11;1013.9;;;-0.2;50.7
45789;BME280;31492;54.856;26.318;2023-02-23T20:21:11;1013.8;;;-0.2;50.5
45789;BME280;31492;54.856;26.318;2023-02-23T20:26:12;1013.7;;;-0.1;50.4
45789;BME280;31492;54.856;26.318;2023-02-23T20:31:19;1013.5;;;-0.2;50.5
45789;BME280;31492;54.856;26.318;2023-02-23T20:36:25;1013.4;;;-0.2;50.5
45789;BME280;31492;54.856;26.318;2023-02-23T20:41:10;1013.3;;;-0.2;50.6
45789;BME280;31492;54.856;26.318;2023-02-23T20:46:11;1013.3;;;-0.2;50.7
45789;BME280;31492;54.856;26.318;2023-02-23T20:51:25;1013.2;;;-0.2;50.9
45789;BME280;31492;54.856;26.318;2023-02-23T20:56:30;1013;;;-0.1;50.8
45789;BME280;31492;54.856;26.318;2023-02-23T21:01:23;1012.9;;;0;50.8
45789;BME280;31492;54.856;26.318;2023-02-23T21:06:33;1012.8;;;0.1;50.8
45789;BME280;31492;54.856;26.318;2023-02-23T21:11:31;1012.7;;;0.1;50.9
45789;BME280;31492;54.856;26.318;2023-02-23T21:16:39;1012.6;;;0.1;50.8
45789;BME280;31492;54.856;26.318;2023-02-23T21:21:18;1012.6;;;0.1;50.8
45789;BME280;31492;54.856;26.318;2023-02-23T21:26:22;1012.6;;;0.1;50.4
45789;BME280;31492;54.856;26.318;2023-02-23T21:31:24;1012.6;;;0.1;51.1
45789;BME280;31492;54.856;26.318;2023-02-23T21:36:11;1012.5;;;0.1;51.3
45789;BME280;31492;54.856;26.318;2023-02-23T21:41:25;1012.4;;;0.2;51.1
45789;BME280;31492;54.856;26.318;2023-02-23T21:46:31;1012.4;;;0.2;51.3
45789;BME280;31492;54.856;26.318;2023-02-23T21:51:11;1012.2;;;0.1;51.5
45789;BME280;31492;54.856;26.318;2023-02-23T21:56:32;1012.1;;;0.2;51.6
45789;BME280;31492;54.856;26.318;2023-02-23T22:01:11;1012;;;0.2;51.9
45789;BME280;31492;54.856;26.318;2023-02-23T22:06:11;1012;;;0.2;52
45789;BME280;31492;54.856;26.318;2023-02-23T22:11:19;1012;;;0.3;52.1
45789;BME280;31492;54.856;26.318;2023-02-23T22:16:10;1011.9;;;0.3;52.3
45789;BME280;31492;54.856;26.318;2023-02-23T22:21:33;1011.9;;;0.3;52.4
45789;BME280;31492;54.856;26.318;2023-02-23T22:26:16;1011.8;;;0.3;52.5
45789;BME280;31492;54.856;26.318;2023-02-23T22:31:11;1011.7;;;0.3;52.6
45789;BME280;31492;54.856;26.318;2023-02-23T22:36:17;1011.6;;;0.4;52.4
45789;BME280;31492;54.856;26.318;2023-02-23T22:41:41;1011.5;;;0.4;52.7
45789;BME280;31492;54.856;26.318;2023-02-23T22:46:24;1011.4;;;0.4;53
45789;BME280;31492;54.856;26.318;2023-02-23T22:51:11;1011.3;;;0.4;53.3
45789;BME280;31492;54.856;26.318;2023-02-23T22:56:24;1011.2;;;0.4;53.4
45789;BME280;31492;54.856;26.318;2023-02-23T23:01:28;1011.1;;;0.4;53.6
45789;BME280;31492;54.856;26.318;2023-02-23T23:06:41;1010.9;;;0.5;53.6
45789;BME280;31492;54.856;26.318;2023-02-23T23:11:11;1010.8;;;0.6;53.6
45789;BME280;31492;54.856;26.318;2023-02-23T23:16:32;1010.7;;;0.6;53.8
45789;BME280;31492;54.856;26.318;2023-02-23T23:21:24;1010.6;;;0.7;53.8
45789;BME280;31492;54.856;26.318;2023-02-23T23:26:17;1010.5;;;0.7;53.7
45789;BME280;31492;54.856;26.318;2023-02-23T23:31:10;1010.4;;;0.7;53.8
45789;BME280;31492;54.856;26.318;2023-02-23T23:36:10;1010.4;;;0.8;53.8
45789;BME280;31492;54.856;26.318;2023-02-23T23:41:24;1010.3;;;0.8;53.8
45789;BME280;31492;54.856;26.318;2023-02-23T23:46:26;1010.2;;;0.9;53.8
45789;BME280;31492;54.856;26.318;2023-02-23T23:51:19;1010;;;0.8;53.9
45789;BME280;31492;54.856;26.318;2023-02-23T23:56:10;1009.9;;;0.8;54.1
